sensor_id;sensor_type;location;lat;lon;timestamp;P1;durP1;ratioP1;P2;durP2;ratioP2
64469;SDS011;50854;48.538;14.352;2022-08-11T01:46:32;15.75;;;9.48;;
64469;SDS011;50854;48.538;14.352;2022-08-11T01:47:53;16.50;;;10.88;;
64469;SDS011;50854;48.538;14.352;2022-08-11T01:50:08;16.92;;;9.43;;
64469;SDS011;50854;48.538;14.352;2022-08-11T01:54:25;17.88;;;10.00;;
64469;SDS011;50854;48.538;14.352;2022-08-11T01:55:37;18.40;;;10.52;;
64469;SDS011;50854;48.538;14.352;2022-08-11T01:58:15;14.95;;;8.90;;
64469;SDS011;50854;48.538;14.352;2022-08-11T01:59:27;13.95;;;9.45;;
64469;SDS011;50854;48.538;14.352;2022-08-11T02:00:55;15.23;;;10.32;;
64469;SDS011;50854;48.538;14.352;2022-08-11T02:03:35;20.60;;;9.07;;
64469;SDS011;50854;48.538;14.352;2022-08-11T02:04:55;12.55;;;8.52;;
64469;SDS011;50854;48.538;14.352;2022-08-11T02:06:13;17.02;;;10.15;;
64469;SDS011;50854;48.538;14.352;2022-08-11T02:08:58;12.93;;;8.80;;
64469;SDS011;50854;48.538;14.352;2022-08-11T02:11:57;16.13;;;9.85;;
64469;SDS011;50854;48.538;14.352;2022-08-11T02:13:08;14.18;;;9.95;;
64469;SDS011;50854;48.538;14.352;2022-08-11T02:14:23;15.95;;;9.20;;
64469;SDS011;50854;48.538;14.352;2022-08-11T02:15:35;14.73;;;9.80;;
64469;SDS011;50854;48.538;14.352;2022-08-11T02:18:12;17.98;;;10.52;;
64469;SDS011;50854;48.538;14.352;2022-08-11T02:21:21;15.63;;;9.38;;
64469;SDS011;50854;48.538;14.352;2022-08-11T02:22:59;16.60;;;9.77;;
64469;SDS011;50854;48.538;14.352;2022-08-11T02:24:22;14.27;;;9.43;;
64469;SDS011;50854;48.538;14.352;2022-08-11T02:26:41;12.98;;;8.48;;
64469;SDS011;50854;48.538;14.352;2022-08-11T02:27:54;15.02;;;9.85;;
64469;SDS011;50854;48.538;14.352;2022-08-11T02:30:10;14.77;;;9.48;;
64469;SDS011;50854;48.538;14.352;2022-08-11T02:35:47;13.40;;;8.82;;
64469;SDS011;50854;48.538;14.352;2022-08-11T02:37:06;14.90;;;9.23;;
64469;SDS011;50854;48.538;14.352;2022-08-11T02:38:27;12.82;;;8.85;;
64469;SDS011;50854;48.538;14.352;2022-08-11T02:39:37;16.27;;;9.43;;
64469;SDS011;50854;48.538;14.352;2022-08-11T02:40:49;16.42;;;8.98;;
64469;SDS011;50854;48.538;14.352;2022-08-11T02:41:57;20.65;;;8.93;;
64469;SDS011;50854;48.538;14.352;2022-08-11T02:46:17;25.02;;;8.80;;
64469;SDS011;50854;48.538;14.352;2022-08-11T02:47:27;14.85;;;9.23;;
64469;SDS011;50854;48.538;14.352;2022-08-11T02:49:25;13.85;;;8.75;;
64469;SDS011;50854;48.538;14.352;2022-08-11T02:55:21;16.80;;;9.45;;
64469;SDS011;50854;48.538;14.352;2022-08-11T02:56:36;14.02;;;8.00;;
64469;SDS011;50854;48.538;14.352;2022-08-11T02:57:46;12.73;;;8.45;;
64469;SDS011;50854;48.538;14.352;2022-08-11T02:58:58;14.68;;;9.27;;
64469;SDS011;50854;48.538;14.352;2022-08-11T03:00:24;15.13;;;10.23;;
64469;SDS011;50854;48.538;14.352;2022-08-11T03:01:31;15.93;;;9.88;;
64469;SDS011;50854;48.538;14.352;2022-08-11T03:04:29;13.80;;;9.40;;
64469;SDS011;50854;48.538;14.352;2022-08-11T03:06:59;13.10;;;9.13;;
64469;SDS011;50854;48.538;14.352;2022-08-11T03:13:16;13.52;;;8.85;;
64469;SDS011;50854;48.538;14.352;2022-08-11T03:14:48;15.15;;;9.10;;
64469;SDS011;50854;48.538;14.352;2022-08-11T03:19:18;13.93;;;9.68;;
64469;SDS011;50854;48.538;14.352;2022-08-11T03:21:33;14.32;;;9.55;;
64469;SDS011;50854;48.538;14.352;2022-08-11T03:24:13;16.00;;;8.25;;
64469;SDS011;50854;48.538;14.352;2022-08-11T03:26:41;16.23;;;9.27;;
64469;SDS011;50854;48.538;14.352;2022-08-11T03:28:03;14.07;;;8.65;;
64469;SDS011;50854;48.538;14.352;2022-08-11T03:32:31;15.13;;;9.90;;
64469;SDS011;50854;48.538;14.352;2022-08-11T03:33:46;16.70;;;10.48;;
64469;SDS011;50854;48.538;14.352;2022-08-11T03:35:02;20.02;;;11.05;;
64469;SDS011;50854;48.538;14.352;2022-08-11T03:46:06;16.67;;;10.93;;
64469;SDS011;50854;48.538;14.352;2022-08-11T03:48:18;16.60;;;10.85;;
64469;SDS011;50854;48.538;14.352;2022-08-11T03:49:28;18.85;;;10.32;;
64469;SDS011;50854;48.538;14.352;2022-08-11T03:51:55;18.02;;;10.50;;
64469;SDS011;50854;48.538;14.352;2022-08-11T03:54:45;21.70;;;10.93;;
64469;SDS011;50854;48.538;14.352;2022-08-11T03:58:39;17.42;;;10.70;;
64469;SDS011;50854;48.538;14.352;2022-08-11T04:11:30;16.25;;;11.20;;
64469;SDS011;50854;48.538;14.352;2022-08-11T04:23:17;21.48;;;11.27;;
64469;SDS011;50854;48.538;14.352;2022-08-11T04:24:37;18.80;;;10.90;;
64469;SDS011;50854;48.538;14.352;2022-08-11T04:28:48;21.58;;;10.80;;
64469;SDS011;50854;48.538;14.352;2022-08-11T04:31:37;22.42;;;10.57;;
64469;SDS011;50854;48.538;14.352;2022-08-11T04:50:47;13.48;;;10.23;;
64469;SDS011;50854;48.538;14.352;2022-08-11T04:56:13;15.55;;;9.95;;
64469;SDS011;50854;48.538;14.352;2022-08-11T04:57:52;19.00;;;9.68;;
64469;SDS011;50854;48.538;14.352;2022-08-11T05:05:59;11.85;;;8.40;;
64469;SDS011;50854;48.538;14.352;2022-08-11T05:13:07;15.02;;;7.68;;
64469;SDS011;50854;48.538;14.352;2022-08-11T05:14:29;15.40;;;7.78;;
64469;SDS011;50854;48.538;14.352;2022-08-11T05:15:55;15.68;;;7.78;;
64469;SDS011;50854;48.538;14.352;2022-08-11T05:17:29;12.82;;;7.63;;
64469;SDS011;50854;48.538;14.352;2022-08-11T05:18:53;16.30;;;8.57;;
64469;SDS011;50854;48.538;14.352;2022-08-11T05:20:13;10.18;;;7.07;;
64469;SDS011;50854;48.538;14.352;2022-08-11T05:21:33;13.00;;;7.50;;
64469;SDS011;50854;48.538;14.352;2022-08-11T05:22:53;11.73;;;7.47;;
64469;SDS011;50854;48.538;14.352;2022-08-11T05:24:16;12.05;;;7.40;;
64469;SDS011;50854;48.538;14.352;2022-08-11T05:25:43;13.55;;;7.25;;
64469;SDS011;50854;48.538;14.352;2022-08-11T05:27:06;13.43;;;6.85;;
64469;SDS011;50854;48.538;14.352;2022-08-11T05:28:31;15.30;;;7.55;;
64469;SDS011;50854;48.538;14.352;2022-08-11T05:31:24;11.57;;;7.63;;
64469;SDS011;50854;48.538;14.352;2022-08-11T05:34:24;10.75;;;7.50;;
64469;SDS011;50854;48.538;14.352;2022-08-11T05:35:46;8.40;;;6.95;;
64469;SDS011;50854;48.538;14.352;2022-08-11T05:36:49;12.18;;;7.13;;
64469;SDS011;50854;48.538;14.352;2022-08-11T05:37:52;10.07;;;7.63;;
64469;SDS011;50854;48.538;14.352;2022-08-11T05:39:33;13.97;;;7.60;;
64469;SDS011;50854;48.538;14.352;2022-08-11T05:41:06;10.05;;;6.88;;
64469;SDS011;50854;48.538;14.352;2022-08-11T05:42:30;11.10;;;6.93;;
64469;SDS011;50854;48.538;14.352;2022-08-11T05:43:51;14.43;;;6.90;;
64469;SDS011;50854;48.538;14.352;2022-08-11T05:45:12;9.50;;;6.47;;
64469;SDS011;50854;48.538;14.352;2022-08-11T05:46:40;8.98;;;6.72;;
64469;SDS011;50854;48.538;14.352;2022-08-11T05:47:59;9.80;;;7.13;;
64469;SDS011;50854;48.538;14.352;2022-08-11T05:49:20;10.13;;;6.33;;
64469;SDS011;50854;48.538;14.352;2022-08-11T05:50:40;11.55;;;6.65;;
64469;SDS011;50854;48.538;14.352;2022-08-11T05:52:01;11.43;;;5.97;;
64469;SDS011;50854;48.538;14.352;2022-08-11T05:53:21;7.75;;;6.47;;
64469;SDS011;50854;48.538;14.352;2022-08-11T05:54:40;10.75;;;6.38;;
64469;SDS011;50854;48.538;14.352;2022-08-11T05:56:03;11.50;;;6.47;;
64469;SDS011;50854;48.538;14.352;2022-08-11T05:57:23;12.23;;;6.70;;
64469;SDS011;50854;48.538;14.352;2022-08-11T05:58:35;19.45;;;7.20;;
64469;SDS011;50854;48.538;14.352;2022-08-11T05:59:40;14.40;;;7.00;;
64469;SDS011;50854;48.538;14.352;2022-08-11T06:00:42;12.95;;;7.32;;
64469;SDS011;50854;48.538;14.352;2022-08-11T06:01:45;16.10;;;6.63;;
64469;SDS011;50854;48.538;14.352;2022-08-11T06:02:53;10.65;;;6.30;;
64469;SDS011;50854;48.538;14.352;2022-08-11T06:03:57;11.32;;;6.22;;
64469;SDS011;50854;48.538;14.352;2022-08-11T06:05:13;12.88;;;6.60;;
64469;SDS011;50854;48.538;14.352;2022-08-11T06:06:15;13.95;;;6.75;;
64469;SDS011;50854;48.538;14.352;2022-08-11T06:07:15;12.77;;;6.47;;
64469;SDS011;50854;48.538;14.352;2022-08-11T06:08:16;11.00;;;7.13;;
64469;SDS011;50854;48.538;14.352;2022-08-11T06:10:37;11.35;;;6.53;;
64469;SDS011;50854;48.538;14.352;2022-08-11T06:11:41;11.23;;;6.85;;
64469;SDS011;50854;48.538;14.352;2022-08-11T06:12:42;12.02;;;6.80;;
64469;SDS011;50854;48.538;14.352;2022-08-11T06:13:45;15.77;;;6.75;;
64469;SDS011;50854;48.538;14.352;2022-08-11T06:14:46;9.40;;;7.07;;
64469;SDS011;50854;48.538;14.352;2022-08-11T06:15:52;10.13;;;6.35;;
64469;SDS011;50854;48.538;14.352;2022-08-11T06:16:56;8.77;;;6.53;;
64469;SDS011;50854;48.538;14.352;2022-08-11T06:17:58;9.30;;;6.72;;
64469;SDS011;50854;48.538;14.352;2022-08-11T06:19:02;10.65;;;6.40;;
64469;SDS011;50854;48.538;14.352;2022-08-11T06:20:04;12.68;;;6.30;;
64469;SDS011;50854;48.538;14.352;2022-08-11T06:21:10;9.95;;;6.68;;
64469;SDS011;50854;48.538;14.352;2022-08-11T06:22:11;11.23;;;6.75;;
64469;SDS011;50854;48.538;14.352;2022-08-11T06:23:19;13.43;;;6.68;;
64469;SDS011;50854;48.538;14.352;2022-08-11T06:24:24;8.00;;;6.43;;
64469;SDS011;50854;48.538;14.352;2022-08-11T06:25:31;11.98;;;7.05;;
64469;SDS011;50854;48.538;14.352;2022-08-11T06:26:34;10.38;;;6.95;;
64469;SDS011;50854;48.538;14.352;2022-08-11T06:27:36;9.50;;;6.97;;
64469;SDS011;50854;48.538;14.352;2022-08-11T06:28:38;10.93;;;6.80;;
64469;SDS011;50854;48.538;14.352;2022-08-11T06:29:45;12.15;;;7.03;;
64469;SDS011;50854;48.538;14.352;2022-08-11T06:30:49;14.68;;;7.13;;
64469;SDS011;50854;48.538;14.352;2022-08-11T06:31:55;9.57;;;6.82;;
64469;SDS011;50854;48.538;14.352;2022-08-11T06:32:58;8.85;;;6.85;;
64469;SDS011;50854;48.538;14.352;2022-08-11T06:34:14;13.43;;;7.10;;
64469;SDS011;50854;48.538;14.352;2022-08-11T06:41:39;8.70;;;6.25;;
64469;SDS011;50854;48.538;14.352;2022-08-11T06:44:29;13.02;;;6.30;;
64469;SDS011;50854;48.538;14.352;2022-08-11T06:46:51;10.60;;;5.90;;
64469;SDS011;50854;48.538;14.352;2022-08-11T06:47:55;15.95;;;6.40;;
64469;SDS011;50854;48.538;14.352;2022-08-11T06:48:59;10.20;;;6.32;;
64469;SDS011;50854;48.538;14.352;2022-08-11T06:50:02;8.43;;;6.13;;
64469;SDS011;50854;48.538;14.352;2022-08-11T06:51:24;13.60;;;6.00;;
64469;SDS011;50854;48.538;14.352;2022-08-11T06:52:30;12.77;;;6.88;;
64469;SDS011;50854;48.538;14.352;2022-08-11T06:53:37;8.98;;;6.22;;
64469;SDS011;50854;48.538;14.352;2022-08-11T06:54:47;10.98;;;6.07;;
64469;SDS011;50854;48.538;14.352;2022-08-11T06:55:56;10.90;;;6.38;;
64469;SDS011;50854;48.538;14.352;2022-08-11T06:57:16;12.20;;;6.50;;
64469;SDS011;50854;48.538;14.352;2022-08-11T06:58:37;14.15;;;6.85;;
64469;SDS011;50854;48.538;14.352;2022-08-11T06:59:58;12.70;;;5.90;;
64469;SDS011;50854;48.538;14.352;2022-08-11T07:01:28;12.23;;;6.20;;
64469;SDS011;50854;48.538;14.352;2022-08-11T07:04:04;10.98;;;6.15;;
64469;SDS011;50854;48.538;14.352;2022-08-11T07:05:28;8.43;;;5.75;;
64469;SDS011;50854;48.538;14.352;2022-08-11T07:07:36;13.52;;;6.47;;
64469;SDS011;50854;48.538;14.352;2022-08-11T07:10:14;15.95;;;6.38;;
64469;SDS011;50854;48.538;14.352;2022-08-11T07:12:22;11.52;;;6.28;;
64469;SDS011;50854;48.538;14.352;2022-08-11T07:13:44;11.30;;;6.13;;
64469;SDS011;50854;48.538;14.352;2022-08-11T07:15:05;7.25;;;5.75;;
64469;SDS011;50854;48.538;14.352;2022-08-11T07:16:45;9.18;;;5.40;;
64469;SDS011;50854;48.538;14.352;2022-08-11T07:17:50;10.07;;;6.05;;
64469;SDS011;50854;48.538;14.352;2022-08-11T07:19:12;15.45;;;5.78;;
64469;SDS011;50854;48.538;14.352;2022-08-11T07:20:35;16.20;;;5.68;;
64469;SDS011;50854;48.538;14.352;2022-08-11T07:21:56;12.38;;;6.32;;
64469;SDS011;50854;48.538;14.352;2022-08-11T07:23:20;9.00;;;5.72;;
64469;SDS011;50854;48.538;14.352;2022-08-11T07:24:41;13.07;;;5.65;;
64469;SDS011;50854;48.538;14.352;2022-08-11T07:26:04;6.57;;;5.30;;
64469;SDS011;50854;48.538;14.352;2022-08-11T07:27:26;10.30;;;5.55;;
64469;SDS011;50854;48.538;14.352;2022-08-11T07:28:49;16.40;;;5.80;;
64469;SDS011;50854;48.538;14.352;2022-08-11T07:29:57;9.20;;;5.28;;
64469;SDS011;50854;48.538;14.352;2022-08-11T07:31:06;8.02;;;5.30;;
64469;SDS011;50854;48.538;14.352;2022-08-11T07:32:16;11.70;;;4.97;;
64469;SDS011;50854;48.538;14.352;2022-08-11T07:33:27;8.10;;;5.80;;
64469;SDS011;50854;48.538;14.352;2022-08-11T07:34:33;9.65;;;5.18;;
64469;SDS011;50854;48.538;14.352;2022-08-11T07:35:37;9.93;;;5.20;;
64469;SDS011;50854;48.538;14.352;2022-08-11T07:36:45;8.02;;;5.38;;
64469;SDS011;50854;48.538;14.352;2022-08-11T07:38:00;14.93;;;5.43;;
64469;SDS011;50854;48.538;14.352;2022-08-11T07:39:03;5.60;;;4.63;;
64469;SDS011;50854;48.538;14.352;2022-08-11T07:40:07;10.77;;;5.30;;
64469;SDS011;50854;48.538;14.352;2022-08-11T07:41:15;8.73;;;5.40;;
64469;SDS011;50854;48.538;14.352;2022-08-11T07:42:19;15.68;;;5.50;;
64469;SDS011;50854;48.538;14.352;2022-08-11T07:43:22;8.25;;;5.38;;
64469;SDS011;50854;48.538;14.352;2022-08-11T07:44:24;7.80;;;5.22;;
64469;SDS011;50854;48.538;14.352;2022-08-11T07:45:28;9.48;;;5.47;;
64469;SDS011;50854;48.538;14.352;2022-08-11T07:46:48;11.95;;;5.13;;
64469;SDS011;50854;48.538;14.352;2022-08-11T07:48:10;13.57;;;5.43;;
64469;SDS011;50854;48.538;14.352;2022-08-11T07:49:31;8.90;;;4.88;;
64469;SDS011;50854;48.538;14.352;2022-08-11T07:50:53;9.95;;;5.95;;
64469;SDS011;50854;48.538;14.352;2022-08-11T07:52:12;9.27;;;4.90;;
64469;SDS011;50854;48.538;14.352;2022-08-11T07:53:26;7.65;;;4.63;;
64469;SDS011;50854;48.538;14.352;2022-08-11T07:54:28;10.15;;;4.47;;
64469;SDS011;50854;48.538;14.352;2022-08-11T07:55:30;6.20;;;3.95;;
64469;SDS011;50854;48.538;14.352;2022-08-11T07:57:33;7.25;;;4.03;;
64469;SDS011;50854;48.538;14.352;2022-08-11T07:58:52;7.85;;;4.10;;
64469;SDS011;50854;48.538;14.352;2022-08-11T08:00:12;9.35;;;4.47;;
64469;SDS011;50854;48.538;14.352;2022-08-11T08:01:32;8.18;;;4.40;;
64469;SDS011;50854;48.538;14.352;2022-08-11T08:02:51;8.13;;;4.63;;
64469;SDS011;50854;48.538;14.352;2022-08-11T08:04:12;6.40;;;4.40;;
64469;SDS011;50854;48.538;14.352;2022-08-11T08:05:35;8.93;;;4.50;;
64469;SDS011;50854;48.538;14.352;2022-08-11T08:06:55;6.55;;;4.43;;
64469;SDS011;50854;48.538;14.352;2022-08-11T08:08:15;9.05;;;3.97;;
64469;SDS011;50854;48.538;14.352;2022-08-11T08:09:34;9.23;;;4.18;;
64469;SDS011;50854;48.538;14.352;2022-08-11T08:10:54;6.97;;;4.28;;
64469;SDS011;50854;48.538;14.352;2022-08-11T08:12:14;10.73;;;3.90;;
64469;SDS011;50854;48.538;14.352;2022-08-11T08:13:33;6.85;;;4.07;;
64469;SDS011;50854;48.538;14.352;2022-08-11T08:14:53;10.85;;;3.25;;
64469;SDS011;50854;48.538;14.352;2022-08-11T08:16:13;8.88;;;4.35;;
64469;SDS011;50854;48.538;14.352;2022-08-11T08:17:33;7.57;;;4.07;;
64469;SDS011;50854;48.538;14.352;2022-08-11T08:18:51;9.18;;;3.80;;
64469;SDS011;50854;48.538;14.352;2022-08-11T08:19:52;8.38;;;4.10;;
64469;SDS011;50854;48.538;14.352;2022-08-11T08:20:54;6.15;;;3.50;;
64469;SDS011;50854;48.538;14.352;2022-08-11T08:22:10;5.07;;;3.60;;
64469;SDS011;50854;48.538;14.352;2022-08-11T08:23:14;5.18;;;3.65;;
64469;SDS011;50854;48.538;14.352;2022-08-11T08:24:17;7.57;;;3.30;;
64469;SDS011;50854;48.538;14.352;2022-08-11T08:25:19;11.60;;;3.70;;
64469;SDS011;50854;48.538;14.352;2022-08-11T08:26:19;9.70;;;3.47;;
64469;SDS011;50854;48.538;14.352;2022-08-11T08:27:38;6.32;;;2.90;;
64469;SDS011;50854;48.538;14.352;2022-08-11T08:28:42;5.55;;;3.25;;
64469;SDS011;50854;48.538;14.352;2022-08-11T08:29:45;8.20;;;3.60;;
64469;SDS011;50854;48.538;14.352;2022-08-11T08:31:06;4.40;;;3.10;;
64469;SDS011;50854;48.538;14.352;2022-08-11T08:32:07;5.80;;;3.47;;
64469;SDS011;50854;48.538;14.352;2022-08-11T08:33:13;3.70;;;3.00;;
64469;SDS011;50854;48.538;14.352;2022-08-11T08:34:18;10.48;;;3.38;;
64469;SDS011;50854;48.538;14.352;2022-08-11T08:36:20;13.10;;;3.95;;
64469;SDS011;50854;48.538;14.352;2022-08-11T08:37:22;7.63;;;3.30;;
64469;SDS011;50854;48.538;14.352;2022-08-11T08:38:25;5.07;;;2.97;;
64469;SDS011;50854;48.538;14.352;2022-08-11T08:39:26;11.90;;;2.83;;
64469;SDS011;50854;48.538;14.352;2022-08-11T08:40:26;7.50;;;3.17;;
64469;SDS011;50854;48.538;14.352;2022-08-11T08:41:28;6.57;;;3.03;;
64469;SDS011;50854;48.538;14.352;2022-08-11T08:42:31;7.85;;;3.70;;
64469;SDS011;50854;48.538;14.352;2022-08-11T08:43:40;4.32;;;3.10;;
64469;SDS011;50854;48.538;14.352;2022-08-11T08:44:45;8.43;;;3.42;;
64469;SDS011;50854;48.538;14.352;2022-08-11T08:45:49;8.15;;;3.72;;
64469;SDS011;50854;48.538;14.352;2022-08-11T08:46:55;7.03;;;3.50;;
64469;SDS011;50854;48.538;14.352;2022-08-11T08:47:58;4.32;;;3.28;;
64469;SDS011;50854;48.538;14.352;2022-08-11T08:49:00;5.40;;;3.28;;
64469;SDS011;50854;48.538;14.352;2022-08-11T08:50:04;6.53;;;3.45;;
64469;SDS011;50854;48.538;14.352;2022-08-11T08:51:10;7.85;;;3.40;;
64469;SDS011;50854;48.538;14.352;2022-08-11T08:52:33;5.88;;;3.30;;
64469;SDS011;50854;48.538;14.352;2022-08-11T08:53:40;8.88;;;3.35;;
64469;SDS011;50854;48.538;14.352;2022-08-11T08:54:48;6.80;;;4.28;;
64469;SDS011;50854;48.538;14.352;2022-08-11T08:55:53;6.75;;;3.78;;
64469;SDS011;50854;48.538;14.352;2022-08-11T08:56:55;8.15;;;3.42;;
64469;SDS011;50854;48.538;14.352;2022-08-11T08:57:56;9.45;;;3.45;;
64469;SDS011;50854;48.538;14.352;2022-08-11T08:59:02;9.45;;;3.53;;
64469;SDS011;50854;48.538;14.352;2022-08-11T09:00:04;4.60;;;3.50;;
64469;SDS011;50854;48.538;14.352;2022-08-11T09:01:07;4.90;;;3.22;;
64469;SDS011;50854;48.538;14.352;2022-08-11T09:02:10;8.23;;;3.33;;
64469;SDS011;50854;48.538;14.352;2022-08-11T09:03:12;6.53;;;3.40;;
64469;SDS011;50854;48.538;14.352;2022-08-11T09:04:13;7.03;;;3.47;;
64469;SDS011;50854;48.538;14.352;2022-08-11T09:07:17;4.60;;;3.13;;
64469;SDS011;50854;48.538;14.352;2022-08-11T09:08:19;5.07;;;3.08;;
64469;SDS011;50854;48.538;14.352;2022-08-11T09:09:21;10.10;;;3.63;;
64469;SDS011;50854;48.538;14.352;2022-08-11T09:10:22;7.00;;;3.55;;
64469;SDS011;50854;48.538;14.352;2022-08-11T09:11:24;6.00;;;3.17;;
64469;SDS011;50854;48.538;14.352;2022-08-11T09:12:43;5.38;;;3.38;;
64469;SDS011;50854;48.538;14.352;2022-08-11T09:13:44;6.05;;;3.50;;
64469;SDS011;50854;48.538;14.352;2022-08-11T09:14:47;6.03;;;3.25;;
64469;SDS011;50854;48.538;14.352;2022-08-11T09:16:04;6.38;;;3.83;;
64469;SDS011;50854;48.538;14.352;2022-08-11T09:18:06;6.73;;;3.23;;
64469;SDS011;50854;48.538;14.352;2022-08-11T09:19:08;5.93;;;3.40;;
64469;SDS011;50854;48.538;14.352;2022-08-11T09:20:19;5.88;;;3.00;;
64469;SDS011;50854;48.538;14.352;2022-08-11T09:21:23;4.22;;;3.17;;
64469;SDS011;50854;48.538;14.352;2022-08-11T09:22:24;6.72;;;3.33;;
64469;SDS011;50854;48.538;14.352;2022-08-11T09:23:44;5.60;;;3.25;;
64469;SDS011;50854;48.538;14.352;2022-08-11T09:25:05;6.32;;;3.60;;
64469;SDS011;50854;48.538;14.352;2022-08-11T09:26:25;7.88;;;3.13;;
64469;SDS011;50854;48.538;14.352;2022-08-11T09:27:44;5.53;;;3.50;;
64469;SDS011;50854;48.538;14.352;2022-08-11T09:28:46;7.20;;;3.47;;
64469;SDS011;50854;48.538;14.352;2022-08-11T09:29:48;9.05;;;3.50;;
64469;SDS011;50854;48.538;14.352;2022-08-11T09:30:50;4.63;;;3.60;;
64469;SDS011;50854;48.538;14.352;2022-08-11T09:31:55;8.82;;;3.10;;
64469;SDS011;50854;48.538;14.352;2022-08-11T09:32:57;6.38;;;3.38;;
64469;SDS011;50854;48.538;14.352;2022-08-11T09:34:00;7.25;;;3.50;;
64469;SDS011;50854;48.538;14.352;2022-08-11T09:35:01;5.30;;;3.28;;
64469;SDS011;50854;48.538;14.352;2022-08-11T09:36:03;9.32;;;3.40;;
64469;SDS011;50854;48.538;14.352;2022-08-11T09:37:24;5.32;;;3.20;;
64469;SDS011;50854;48.538;14.352;2022-08-11T09:38:44;7.38;;;3.70;;
64469;SDS011;50854;48.538;14.352;2022-08-11T09:40:03;7.50;;;3.60;;
64469;SDS011;50854;48.538;14.352;2022-08-11T09:41:25;7.88;;;3.40;;
64469;SDS011;50854;48.538;14.352;2022-08-11T09:42:25;9.88;;;3.38;;
64469;SDS011;50854;48.538;14.352;2022-08-11T09:43:46;8.40;;;3.60;;
64469;SDS011;50854;48.538;14.352;2022-08-11T09:45:05;5.72;;;3.03;;
64469;SDS011;50854;48.538;14.352;2022-08-11T09:46:07;7.35;;;3.25;;
64469;SDS011;50854;48.538;14.352;2022-08-11T09:47:08;4.80;;;3.38;;
64469;SDS011;50854;48.538;14.352;2022-08-11T09:48:14;11.15;;;3.05;;
64469;SDS011;50854;48.538;14.352;2022-08-11T09:49:17;12.77;;;3.55;;
64469;SDS011;50854;48.538;14.352;2022-08-11T09:50:20;7.78;;;4.22;;
64469;SDS011;50854;48.538;14.352;2022-08-11T09:52:22;6.23;;;3.40;;
64469;SDS011;50854;48.538;14.352;2022-08-11T09:53:24;6.93;;;3.00;;
64469;SDS011;50854;48.538;14.352;2022-08-11T09:54:27;4.50;;;3.38;;
64469;SDS011;50854;48.538;14.352;2022-08-11T09:55:27;6.00;;;3.17;;
64469;SDS011;50854;48.538;14.352;2022-08-11T09:56:28;9.27;;;3.22;;
64469;SDS011;50854;48.538;14.352;2022-08-11T09:57:48;7.28;;;3.33;;
64469;SDS011;50854;48.538;14.352;2022-08-11T09:59:07;12.88;;;3.38;;
64469;SDS011;50854;48.538;14.352;2022-08-11T10:00:09;13.23;;;3.13;;
64469;SDS011;50854;48.538;14.352;2022-08-11T10:01:11;6.47;;;3.40;;
64469;SDS011;50854;48.538;14.352;2022-08-11T10:02:27;10.82;;;3.25;;
64469;SDS011;50854;48.538;14.352;2022-08-11T10:03:29;10.35;;;3.28;;
64469;SDS011;50854;48.538;14.352;2022-08-11T10:04:39;12.25;;;3.30;;
64469;SDS011;50854;48.538;14.352;2022-08-11T10:05:52;6.45;;;3.55;;
64469;SDS011;50854;48.538;14.352;2022-08-11T10:07:22;5.97;;;3.35;;
64469;SDS011;50854;48.538;14.352;2022-08-11T10:08:27;7.32;;;3.42;;
64469;SDS011;50854;48.538;14.352;2022-08-11T10:09:35;5.10;;;3.25;;
64469;SDS011;50854;48.538;14.352;2022-08-11T10:10:38;7.07;;;3.70;;
64469;SDS011;50854;48.538;14.352;2022-08-11T10:11:40;11.50;;;3.40;;
64469;SDS011;50854;48.538;14.352;2022-08-11T10:12:45;5.25;;;2.90;;
64469;SDS011;50854;48.538;14.352;2022-08-11T10:13:50;6.63;;;3.13;;
64469;SDS011;50854;48.538;14.352;2022-08-11T10:15:11;8.93;;;3.72;;
64469;SDS011;50854;48.538;14.352;2022-08-11T10:16:38;6.35;;;2.90;;
64469;SDS011;50854;48.538;14.352;2022-08-11T10:17:41;5.82;;;2.90;;
64469;SDS011;50854;48.538;14.352;2022-08-11T10:19:02;7.78;;;3.05;;
64469;SDS011;50854;48.538;14.352;2022-08-11T10:20:04;5.25;;;2.85;;
64469;SDS011;50854;48.538;14.352;2022-08-11T10:22:27;5.95;;;3.35;;
64469;SDS011;50854;48.538;14.352;2022-08-11T10:23:47;6.18;;;3.28;;
64469;SDS011;50854;48.538;14.352;2022-08-11T10:25:06;11.00;;;3.13;;
64469;SDS011;50854;48.538;14.352;2022-08-11T10:26:27;10.15;;;3.13;;
64469;SDS011;50854;48.538;14.352;2022-08-11T10:27:47;4.32;;;3.03;;
64469;SDS011;50854;48.538;14.352;2022-08-11T10:28:57;6.45;;;3.22;;
64469;SDS011;50854;48.538;14.352;2022-08-11T10:30:00;5.30;;;3.05;;
64469;SDS011;50854;48.538;14.352;2022-08-11T10:31:20;7.68;;;3.42;;
64469;SDS011;50854;48.538;14.352;2022-08-11T10:32:40;6.93;;;3.10;;
64469;SDS011;50854;48.538;14.352;2022-08-11T10:34:00;11.48;;;3.25;;
64469;SDS011;50854;48.538;14.352;2022-08-11T10:35:05;5.70;;;3.00;;
64469;SDS011;50854;48.538;14.352;2022-08-11T10:36:08;5.15;;;3.03;;
64469;SDS011;50854;48.538;14.352;2022-08-11T10:37:08;8.52;;;3.13;;
64469;SDS011;50854;48.538;14.352;2022-08-11T10:38:11;5.65;;;3.22;;
64469;SDS011;50854;48.538;14.352;2022-08-11T10:39:16;6.20;;;3.25;;
64469;SDS011;50854;48.538;14.352;2022-08-11T10:40:19;6.03;;;3.50;;
64469;SDS011;50854;48.538;14.352;2022-08-11T10:41:21;4.80;;;3.08;;
64469;SDS011;50854;48.538;14.352;2022-08-11T10:42:42;4.60;;;3.30;;
64469;SDS011;50854;48.538;14.352;2022-08-11T10:44:02;8.60;;;3.17;;
64469;SDS011;50854;48.538;14.352;2022-08-11T10:45:06;8.77;;;3.03;;
64469;SDS011;50854;48.538;14.352;2022-08-11T10:46:29;7.78;;;2.92;;
64469;SDS011;50854;48.538;14.352;2022-08-11T10:47:53;6.65;;;3.13;;
64469;SDS011;50854;48.538;14.352;2022-08-11T10:48:55;5.05;;;2.95;;
64469;SDS011;50854;48.538;14.352;2022-08-11T10:49:56;5.57;;;2.88;;
64469;SDS011;50854;48.538;14.352;2022-08-11T10:51:17;15.48;;;3.45;;
64469;SDS011;50854;48.538;14.352;2022-08-11T10:52:18;9.05;;;2.90;;
64469;SDS011;50854;48.538;14.352;2022-08-11T10:53:44;7.22;;;2.85;;
64469;SDS011;50854;48.538;14.352;2022-08-11T10:55:06;3.00;;;2.70;;
64469;SDS011;50854;48.538;14.352;2022-08-11T10:56:30;4.80;;;2.75;;
64469;SDS011;50854;48.538;14.352;2022-08-11T10:57:52;8.35;;;2.67;;
64469;SDS011;50854;48.538;14.352;2022-08-11T10:59:11;9.65;;;3.05;;
64469;SDS011;50854;48.538;14.352;2022-08-11T11:00:13;5.35;;;2.58;;
64469;SDS011;50854;48.538;14.352;2022-08-11T11:01:17;6.45;;;3.10;;
64469;SDS011;50854;48.538;14.352;2022-08-11T11:02:30;8.57;;;2.88;;
64469;SDS011;50854;48.538;14.352;2022-08-11T11:03:31;4.70;;;2.90;;
64469;SDS011;50854;48.538;14.352;2022-08-11T11:07:37;4.70;;;2.90;;
64469;SDS011;50854;48.538;14.352;2022-08-11T11:08:44;4.13;;;2.80;;
64469;SDS011;50854;48.538;14.352;2022-08-11T11:09:53;5.65;;;3.00;;
64469;SDS011;50854;48.538;14.352;2022-08-11T11:10:57;4.40;;;2.92;;
64469;SDS011;50854;48.538;14.352;2022-08-11T11:12:12;5.38;;;3.40;;
64469;SDS011;50854;48.538;14.352;2022-08-11T11:13:38;6.57;;;2.70;;
64469;SDS011;50854;48.538;14.352;2022-08-11T11:14:57;10.63;;;2.92;;
64469;SDS011;50854;48.538;14.352;2022-08-11T11:16:21;7.25;;;2.80;;
64469;SDS011;50854;48.538;14.352;2022-08-11T11:17:46;5.90;;;3.15;;
64469;SDS011;50854;48.538;14.352;2022-08-11T11:19:00;5.95;;;2.78;;
64469;SDS011;50854;48.538;14.352;2022-08-11T11:20:07;7.13;;;3.00;;
64469;SDS011;50854;48.538;14.352;2022-08-11T11:21:10;6.82;;;2.88;;
64469;SDS011;50854;48.538;14.352;2022-08-11T11:22:14;8.25;;;3.10;;
64469;SDS011;50854;48.538;14.352;2022-08-11T11:23:41;4.78;;;2.95;;